sensor_id;sensor_type;location;lat;lon;timestamp;P1;durP1;ratioP1;P2;durP2;ratioP2
15256;SDS011;7731;50.720;6.912;2023-03-02T00:01:43;10.33;;;6.37;;
15256;SDS011;7731;50.720;6.912;2023-03-02T00:04:22;11.77;;;6.90;;
15256;SDS011;7731;50.720;6.912;2023-03-02T00:06:57;11.93;;;6.77;;
15256;SDS011;7731;50.720;6.912;2023-03-02T00:09:33;11.37;;;6.43;;
15256;SDS011;7731;50.720;6.912;2023-03-02T00:12:04;9.87;;;6.13;;
15256;SDS011;7731;50.720;6.912;2023-03-02T00:14:36;11.63;;;6.63;;
15256;SDS011;7731;50.720;6.912;2023-03-02T00:17:08;9.37;;;6.40;;
15256;SDS011;7731;50.720;6.912;2023-03-02T00:19:41;10.30;;;6.80;;
15256;SDS011;7731;50.720;6.912;2023-03-02T00:22:11;12.47;;;8.37;;
15256;SDS011;7731;50.720;6.912;2023-03-02T00:24:41;13.83;;;8.83;;
15256;SDS011;7731;50.720;6.912;2023-03-02T00:27:11;13.00;;;9.00;;
15256;SDS011;7731;50.720;6.912;2023-03-02T00:29:41;17.60;;;10.33;;
15256;SDS011;7731;50.720;6.912;2023-03-02T00:32:13;13.30;;;9.03;;
15256;SDS011;7731;50.720;6.912;2023-03-02T00:34:46;18.57;;;10.47;;
15256;SDS011;7731;50.720;6.912;2023-03-02T00:37:16;14.03;;;9.83;;
15256;SDS011;7731;50.720;6.912;2023-03-02T00:39:50;13.73;;;9.40;;
15256;SDS011;7731;50.720;6.912;2023-03-02T00:42:20;14.07;;;9.33;;
15256;SDS011;7731;50.720;6.912;2023-03-02T00:44:51;14.77;;;9.90;;
15256;SDS011;7731;50.720;6.912;2023-03-02T00:47:24;15.23;;;9.83;;
15256;SDS011;7731;50.720;6.912;2023-03-02T00:49:59;15.47;;;10.13;;
15256;SDS011;7731;50.720;6.912;2023-03-02T00:52:30;12.80;;;9.40;;
15256;SDS011;7731;50.720;6.912;2023-03-02T00:55:02;12.87;;;9.07;;
15256;SDS011;7731;50.720;6.912;2023-03-02T00:57:34;11.50;;;7.90;;
15256;SDS011;7731;50.720;6.912;2023-03-02T01:00:05;10.70;;;7.10;;
15256;SDS011;7731;50.720;6.912;2023-03-02T01:02:38;11.57;;;7.23;;
15256;SDS011;7731;50.720;6.912;2023-03-02T01:05:12;12.73;;;7.07;;
15256;SDS011;7731;50.720;6.912;2023-03-02T01:07:43;11.90;;;7.13;;
15256;SDS011;7731;50.720;6.912;2023-03-02T01:10:14;11.17;;;6.90;;
15256;SDS011;7731;50.720;6.912;2023-03-02T01:12:44;13.77;;;7.00;;
15256;SDS011;7731;50.720;6.912;2023-03-02T01:15:14;9.63;;;7.50;;
15256;SDS011;7731;50.720;6.912;2023-03-02T01:17:45;12.60;;;7.83;;
15256;SDS011;7731;50.720;6.912;2023-03-02T01:20:17;12.03;;;8.17;;
15256;SDS011;7731;50.720;6.912;2023-03-02T01:22:48;14.27;;;9.37;;
15256;SDS011;7731;50.720;6.912;2023-03-02T01:25:20;13.03;;;8.27;;
15256;SDS011;7731;50.720;6.912;2023-03-02T01:27:51;12.63;;;8.33;;
15256;SDS011;7731;50.720;6.912;2023-03-02T01:30:21;12.90;;;8.83;;
15256;SDS011;7731;50.720;6.912;2023-03-02T01:32:51;13.97;;;9.10;;
15256;SDS011;7731;50.720;6.912;2023-03-02T01:35:24;14.27;;;8.63;;
15256;SDS011;7731;50.720;6.912;2023-03-02T01:37:54;15.60;;;8.83;;
15256;SDS011;7731;50.720;6.912;2023-03-02T01:40:25;12.87;;;8.40;;
15256;SDS011;7731;50.720;6.912;2023-03-02T01:42:55;12.67;;;8.40;;
15256;SDS011;7731;50.720;6.912;2023-03-02T01:45:56;14.70;;;9.50;;
15256;SDS011;7731;50.720;6.912;2023-03-02T01:48:33;13.07;;;8.87;;
15256;SDS011;7731;50.720;6.912;2023-03-02T01:51:18;14.73;;;10.23;;
15256;SDS011;7731;50.720;6.912;2023-03-02T01:53:52;13.70;;;9.60;;
15256;SDS011;7731;50.720;6.912;2023-03-02T01:56:29;15.63;;;10.13;;
15256;SDS011;7731;50.720;6.912;2023-03-02T01:59:06;14.67;;;9.13;;
15256;SDS011;7731;50.720;6.912;2023-03-02T02:01:42;11.83;;;9.13;;
15256;SDS011;7731;50.720;6.912;2023-03-02T02:04:19;15.47;;;8.80;;
15256;SDS011;7731;50.720;6.912;2023-03-02T02:06:55;12.17;;;8.63;;
15256;SDS011;7731;50.720;6.912;2023-03-02T02:09:31;15.00;;;8.87;;
15256;SDS011;7731;50.720;6.912;2023-03-02T02:12:10;14.83;;;8.93;;
15256;SDS011;7731;50.720;6.912;2023-03-02T02:14:43;12.97;;;8.90;;
15256;SDS011;7731;50.720;6.912;2023-03-02T02:17:14;12.53;;;9.40;;
15256;SDS011;7731;50.720;6.912;2023-03-02T02:19:54;13.70;;;9.30;;
15256;SDS011;7731;50.720;6.912;2023-03-02T02:22:46;13.60;;;9.33;;
15256;SDS011;7731;50.720;6.912;2023-03-02T02:25:35;15.13;;;9.23;;
15256;SDS011;7731;50.720;6.912;2023-03-02T02:28:21;15.70;;;9.30;;
15256;SDS011;7731;50.720;6.912;2023-03-02T02:31:01;15.10;;;10.30;;
15256;SDS011;7731;50.720;6.912;2023-03-02T02:33:39;16.13;;;9.13;;
15256;SDS011;7731;50.720;6.912;2023-03-02T02:36:14;13.90;;;9.33;;
15256;SDS011;7731;50.720;6.912;2023-03-02T02:38:51;17.33;;;9.80;;
15256;SDS011;7731;50.720;6.912;2023-03-02T02:41:30;14.63;;;9.60;;
15256;SDS011;7731;50.720;6.912;2023-03-02T02:44:10;13.17;;;9.40;;
15256;SDS011;7731;50.720;6.912;2023-03-02T02:46:44;14.73;;;9.70;;
15256;SDS011;7731;50.720;6.912;2023-03-02T02:49:31;15.00;;;9.33;;
15256;SDS011;7731;50.720;6.912;2023-03-02T02:52:05;17.53;;;10.10;;
15256;SDS011;7731;50.720;6.912;2023-03-02T02:54:38;18.20;;;10.23;;
15256;SDS011;7731;50.720;6.912;2023-03-02T02:57:10;15.30;;;9.50;;
15256;SDS011;7731;50.720;6.912;2023-03-02T02:59:47;14.37;;;9.57;;
15256;SDS011;7731;50.720;6.912;2023-03-02T03:02:25;15.27;;;10.83;;
15256;SDS011;7731;50.720;6.912;2023-03-02T03:05:08;17.40;;;12.50;;
15256;SDS011;7731;50.720;6.912;2023-03-02T03:07:43;15.10;;;11.93;;
15256;SDS011;7731;50.720;6.912;2023-03-02T03:10:14;15.87;;;12.00;;
15256;SDS011;7731;50.720;6.912;2023-03-02T03:12:51;16.60;;;12.63;;
15256;SDS011;7731;50.720;6.912;2023-03-02T03:15:24;16.17;;;12.30;;
15256;SDS011;7731;50.720;6.912;2023-03-02T03:17:57;17.03;;;12.17;;
15256;SDS011;7731;50.720;6.912;2023-03-02T03:20:27;15.77;;;11.87;;
15256;SDS011;7731;50.720;6.912;2023-03-02T03:22:58;15.73;;;12.23;;
15256;SDS011;7731;50.720;6.912;2023-03-02T03:25:28;19.10;;;13.53;;
15256;SDS011;7731;50.720;6.912;2023-03-02T03:28:00;15.50;;;11.10;;
15256;SDS011;7731;50.720;6.912;2023-03-02T03:30:33;16.57;;;10.73;;
15256;SDS011;7731;50.720;6.912;2023-03-02T03:33:03;13.07;;;9.73;;
15256;SDS011;7731;50.720;6.912;2023-03-02T03:35:36;13.83;;;9.73;;
15256;SDS011;7731;50.720;6.912;2023-03-02T03:38:07;14.67;;;9.67;;
15256;SDS011;7731;50.720;6.912;2023-03-02T03:40:37;15.87;;;9.50;;
15256;SDS011;7731;50.720;6.912;2023-03-02T03:43:08;16.37;;;9.60;;
15256;SDS011;7731;50.720;6.912;2023-03-02T03:45:43;15.37;;;9.57;;
15256;SDS011;7731;50.720;6.912;2023-03-02T03:48:13;14.67;;;10.10;;
15256;SDS011;7731;50.720;6.912;2023-03-02T03:50:43;16.97;;;9.67;;
15256;SDS011;7731;50.720;6.912;2023-03-02T03:53:13;15.20;;;9.63;;
15256;SDS011;7731;50.720;6.912;2023-03-02T03:55:43;13.53;;;9.40;;
15256;SDS011;7731;50.720;6.912;2023-03-02T03:58:13;15.87;;;9.60;;
15256;SDS011;7731;50.720;6.912;2023-03-02T04:00:46;13.93;;;8.97;;
15256;SDS011;7731;50.720;6.912;2023-03-02T04:03:17;13.87;;;9.20;;
15256;SDS011;7731;50.720;6.912;2023-03-02T04:05:48;16.57;;;9.43;;
15256;SDS011;7731;50.720;6.912;2023-03-02T04:08:19;15.30;;;9.03;;
15256;SDS011;7731;50.720;6.912;2023-03-02T04:10:49;13.13;;;8.73;;
15256;SDS011;7731;50.720;6.912;2023-03-02T04:13:19;13.20;;;9.03;;
15256;SDS011;7731;50.720;6.912;2023-03-02T04:15:52;12.53;;;8.83;;
15256;SDS011;7731;50.720;6.912;2023-03-02T04:18:22;15.47;;;8.77;;
15256;SDS011;7731;50.720;6.912;2023-03-02T04:20:53;13.97;;;9.53;;
15256;SDS011;7731;50.720;6.912;2023-03-02T04:23:23;14.33;;;10.13;;
15256;SDS011;7731;50.720;6.912;2023-03-02T04:25:53;12.23;;;8.63;;
15256;SDS011;7731;50.720;6.912;2023-03-02T04:28:23;13.77;;;9.10;;
15256;SDS011;7731;50.720;6.912;2023-03-02T04:30:58;13.97;;;9.17;;
15256;SDS011;7731;50.720;6.912;2023-03-02T04:33:28;11.87;;;8.40;;
15256;SDS011;7731;50.720;6.912;2023-03-02T04:35:58;14.40;;;8.83;;
15256;SDS011;7731;50.720;6.912;2023-03-02T04:38:29;14.63;;;9.13;;
15256;SDS011;7731;50.720;6.912;2023-03-02T04:40:59;12.47;;;8.43;;
15256;SDS011;7731;50.720;6.912;2023-03-02T04:43:30;12.23;;;8.57;;
15256;SDS011;7731;50.720;6.912;2023-03-02T04:46:02;15.17;;;8.80;;
15256;SDS011;7731;50.720;6.912;2023-03-02T04:48:33;13.50;;;9.20;;
15256;SDS011;7731;50.720;6.912;2023-03-02T04:51:04;15.27;;;8.63;;
15256;SDS011;7731;50.720;6.912;2023-03-02T04:53:34;13.60;;;9.57;;
15256;SDS011;7731;50.720;6.912;2023-03-02T04:56:04;13.80;;;8.67;;
15256;SDS011;7731;50.720;6.912;2023-03-02T04:58:35;13.97;;;9.53;;
15256;SDS011;7731;50.720;6.912;2023-03-02T05:01:08;15.63;;;9.97;;
15256;SDS011;7731;50.720;6.912;2023-03-02T05:03:38;16.73;;;12.13;;
15256;SDS011;7731;50.720;6.912;2023-03-02T05:06:09;14.60;;;10.30;;
15256;SDS011;7731;50.720;6.912;2023-03-02T05:08:42;14.80;;;9.77;;
15256;SDS011;7731;50.720;6.912;2023-03-02T05:11:14;15.13;;;9.30;;
15256;SDS011;7731;50.720;6.912;2023-03-02T05:13:50;15.00;;;9.63;;
15256;SDS011;7731;50.720;6.912;2023-03-02T05:16:28;16.33;;;11.63;;
15256;SDS011;7731;50.720;6.912;2023-03-02T05:19:02;14.93;;;11.83;;
15256;SDS011;7731;50.720;6.912;2023-03-02T05:21:35;17.47;;;12.63;;
15256;SDS011;7731;50.720;6.912;2023-03-02T05:24:06;17.33;;;12.57;;
15256;SDS011;7731;50.720;6.912;2023-03-02T05:26:37;19.53;;;12.43;;
15256;SDS011;7731;50.720;6.912;2023-03-02T05:29:08;14.97;;;11.83;;
15256;SDS011;7731;50.720;6.912;2023-03-02T05:31:43;17.97;;;12.57;;
15256;SDS011;7731;50.720;6.912;2023-03-02T05:34:15;15.73;;;11.83;;
15256;SDS011;7731;50.720;6.912;2023-03-02T05:36:47;15.80;;;12.13;;
15256;SDS011;7731;50.720;6.912;2023-03-02T05:39:19;15.73;;;11.90;;
15256;SDS011;7731;50.720;6.912;2023-03-02T05:41:49;18.00;;;12.83;;
15256;SDS011;7731;50.720;6.912;2023-03-02T05:44:19;16.87;;;13.57;;
15256;SDS011;7731;50.720;6.912;2023-03-02T05:46:52;17.03;;;12.83;;
15256;SDS011;7731;50.720;6.912;2023-03-02T05:49:22;16.57;;;10.93;;
15256;SDS011;7731;50.720;6.912;2023-03-02T05:51:52;14.77;;;11.60;;
15256;SDS011;7731;50.720;6.912;2023-03-02T05:54:25;16.37;;;11.57;;
15256;SDS011;7731;50.720;6.912;2023-03-02T05:56:55;22.90;;;12.70;;
15256;SDS011;7731;50.720;6.912;2023-03-02T05:59:25;14.50;;;9.53;;
15256;SDS011;7731;50.720;6.912;2023-03-02T06:01:58;13.80;;;9.30;;
15256;SDS011;7731;50.720;6.912;2023-03-02T06:04:30;14.70;;;9.17;;
15256;SDS011;7731;50.720;6.912;2023-03-02T06:07:00;15.27;;;9.53;;
15256;SDS011;7731;50.720;6.912;2023-03-02T06:09:30;13.37;;;9.40;;
15256;SDS011;7731;50.720;6.912;2023-03-02T06:12:03;15.77;;;9.60;;
15256;SDS011;7731;50.720;6.912;2023-03-02T06:14:34;15.63;;;9.10;;
15256;SDS011;7731;50.720;6.912;2023-03-02T06:17:09;14.70;;;9.47;;
15256;SDS011;7731;50.720;6.912;2023-03-02T06:19:39;14.87;;;9.73;;
15256;SDS011;7731;50.720;6.912;2023-03-02T06:22:09;13.60;;;9.50;;
15256;SDS011;7731;50.720;6.912;2023-03-02T06:24:40;15.43;;;8.77;;
15256;SDS011;7731;50.720;6.912;2023-03-02T06:27:10;15.13;;;9.60;;
15256;SDS011;7731;50.720;6.912;2023-03-02T06:29:45;13.50;;;8.50;;
15256;SDS011;7731;50.720;6.912;2023-03-02T06:32:18;19.63;;;9.87;;
15256;SDS011;7731;50.720;6.912;2023-03-02T06:34:51;15.73;;;8.93;;
15256;SDS011;7731;50.720;6.912;2023-03-02T06:37:21;14.93;;;8.53;;
15256;SDS011;7731;50.720;6.912;2023-03-02T06:39:51;17.97;;;11.30;;
15256;SDS011;7731;50.720;6.912;2023-03-02T06:42:21;19.37;;;8.73;;
15256;SDS011;7731;50.720;6.912;2023-03-02T06:44:53;15.07;;;9.73;;
15256;SDS011;7731;50.720;6.912;2023-03-02T06:47:26;13.67;;;9.03;;
15256;SDS011;7731;50.720;6.912;2023-03-02T06:49:56;15.03;;;9.03;;
15256;SDS011;7731;50.720;6.912;2023-03-02T06:52:26;15.20;;;8.53;;
15256;SDS011;7731;50.720;6.912;2023-03-02T06:54:57;15.90;;;8.90;;
15256;SDS011;7731;50.720;6.912;2023-03-02T06:57:27;11.80;;;8.17;;
15256;SDS011;7731;50.720;6.912;2023-03-02T06:59:59;14.63;;;8.43;;
15256;SDS011;7731;50.720;6.912;2023-03-02T07:02:35;12.33;;;8.30;;
15256;SDS011;7731;50.720;6.912;2023-03-02T07:05:06;14.87;;;9.00;;
15256;SDS011;7731;50.720;6.912;2023-03-02T07:07:37;13.20;;;8.33;;
15256;SDS011;7731;50.720;6.912;2023-03-02T07:10:09;11.50;;;7.80;;
15256;SDS011;7731;50.720;6.912;2023-03-02T07:12:40;13.87;;;8.43;;
15256;SDS011;7731;50.720;6.912;2023-03-02T07:15:11;15.63;;;9.50;;
15256;SDS011;7731;50.720;6.912;2023-03-02T07:17:46;14.37;;;8.70;;
15256;SDS011;7731;50.720;6.912;2023-03-02T07:20:17;19.07;;;9.40;;
15256;SDS011;7731;50.720;6.912;2023-03-02T07:22:47;15.57;;;9.03;;
15256;SDS011;7731;50.720;6.912;2023-03-02T07:25:18;13.93;;;8.60;;
15256;SDS011;7731;50.720;6.912;2023-03-02T07:27:50;14.20;;;9.20;;
15256;SDS011;7731;50.720;6.912;2023-03-02T07:30:21;14.57;;;8.97;;
15256;SDS011;7731;50.720;6.912;2023-03-02T07:32:56;16.10;;;9.33;;
15256;SDS011;7731;50.720;6.912;2023-03-02T07:35:26;17.70;;;10.33;;
15256;SDS011;7731;50.720;6.912;2023-03-02T07:37:56;20.10;;;9.40;;
15256;SDS011;7731;50.720;6.912;2023-03-02T07:40:26;13.53;;;8.63;;
15256;SDS011;7731;50.720;6.912;2023-03-02T07:42:56;13.43;;;8.77;;
15256;SDS011;7731;50.720;6.912;2023-03-02T07:45:27;12.03;;;7.93;;
15256;SDS011;7731;50.720;6.912;2023-03-02T07:48:02;13.30;;;8.63;;
15256;SDS011;7731;50.720;6.912;2023-03-02T07:50:33;13.33;;;8.27;;
15256;SDS011;7731;50.720;6.912;2023-03-02T07:53:03;12.57;;;7.97;;
15256;SDS011;7731;50.720;6.912;2023-03-02T07:55:33;18.27;;;9.67;;
15256;SDS011;7731;50.720;6.912;2023-03-02T07:58:07;16.80;;;9.20;;
15256;SDS011;7731;50.720;6.912;2023-03-02T08:00:38;15.40;;;8.87;;
15256;SDS011;7731;50.720;6.912;2023-03-02T08:03:12;15.70;;;9.50;;
15256;SDS011;7731;50.720;6.912;2023-03-02T08:05:46;17.25;;;8.73;;
15256;SDS011;7731;50.720;6.912;2023-03-02T08:08:16;12.63;;;8.88;;
15256;SDS011;7731;50.720;6.912;2023-03-02T08:10:46;10.38;;;9.10;;
15256;SDS011;7731;50.720;6.912;2023-03-02T08:13:16;11.85;;;10.00;;
15256;SDS011;7731;50.720;6.912;2023-03-02T08:15:46;12.15;;;10.35;;
15256;SDS011;7731;50.720;6.912;2023-03-02T08:18:19;13.85;;;11.15;;
15256;SDS011;7731;50.720;6.912;2023-03-02T08:20:49;14.13;;;10.95;;
15256;SDS011;7731;50.720;6.912;2023-03-02T08:23:22;13.65;;;11.60;;
15256;SDS011;7731;50.720;6.912;2023-03-02T08:25:53;12.80;;;10.93;;
15256;SDS011;7731;50.720;6.912;2023-03-02T08:28:23;11.93;;;10.70;;
15256;SDS011;7731;50.720;6.912;2023-03-02T08:30:55;12.95;;;11.25;;
15256;SDS011;7731;50.720;6.912;2023-03-02T08:33:28;12.73;;;11.27;;
15256;SDS011;7731;50.720;6.912;2023-03-02T08:36:00;11.68;;;10.57;;
15256;SDS011;7731;50.720;6.912;2023-03-02T08:38:33;13.23;;;10.45;;
15256;SDS011;7731;50.720;6.912;2023-03-02T08:41:04;13.40;;;10.57;;
15256;SDS011;7731;50.720;6.912;2023-03-02T08:43:38;12.45;;;10.63;;
15256;SDS011;7731;50.720;6.912;2023-03-02T08:46:09;13.45;;;10.60;;
15256;SDS011;7731;50.720;6.912;2023-03-02T08:48:43;12.38;;;11.07;;
15256;SDS011;7731;50.720;6.912;2023-03-02T08:51:18;13.73;;;11.07;;
15256;SDS011;7731;50.720;6.912;2023-03-02T08:53:52;13.23;;;11.63;;
15256;SDS011;7731;50.720;6.912;2023-03-02T08:56:24;17.63;;;11.60;;
15256;SDS011;7731;50.720;6.912;2023-03-02T08:58:59;13.38;;;11.63;;
15256;SDS011;7731;50.720;6.912;2023-03-02T09:01:32;14.25;;;11.18;;
15256;SDS011;7731;50.720;6.912;2023-03-02T09:04:08;17.02;;;12.75;;
15256;SDS011;7731;50.720;6.912;2023-03-02T09:06:41;13.65;;;11.23;;
15256;SDS011;7731;50.720;6.912;2023-03-02T09:09:14;15.77;;;12.13;;
15256;SDS011;7731;50.720;6.912;2023-03-02T09:11:44;14.32;;;12.07;;
15256;SDS011;7731;50.720;6.912;2023-03-02T09:14:14;13.77;;;11.90;;
15256;SDS011;7731;50.720;6.912;2023-03-02T09:16:44;13.40;;;11.43;;
15256;SDS011;7731;50.720;6.912;2023-03-02T09:19:17;15.13;;;11.63;;
15256;SDS011;7731;50.720;6.912;2023-03-02T09:21:48;16.08;;;11.38;;
15256;SDS011;7731;50.720;6.912;2023-03-02T09:24:19;12.57;;;11.27;;
15256;SDS011;7731;50.720;6.912;2023-03-02T09:26:49;12.25;;;11.00;;
15256;SDS011;7731;50.720;6.912;2023-03-02T09:29:19;15.23;;;11.32;;
15256;SDS011;7731;50.720;6.912;2023-03-02T09:31:49;18.38;;;13.27;;
15256;SDS011;7731;50.720;6.912;2023-03-02T09:34:24;14.70;;;11.48;;
15256;SDS011;7731;50.720;6.912;2023-03-02T09:36:54;12.77;;;11.55;;
15256;SDS011;7731;50.720;6.912;2023-03-02T09:39:25;12.77;;;11.32;;
15256;SDS011;7731;50.720;6.912;2023-03-02T09:42:01;12.57;;;10.90;;
15256;SDS011;7731;50.720;6.912;2023-03-02T09:45:14;13.50;;;12.07;;
15256;SDS011;7731;50.720;6.912;2023-03-02T09:48:26;12.40;;;10.57;;
15256;SDS011;7731;50.720;6.912;2023-03-02T09:51:15;12.57;;;11.48;;
15256;SDS011;7731;50.720;6.912;2023-03-02T09:54:03;12.18;;;10.68;;
15256;SDS011;7731;50.720;6.912;2023-03-02T09:56:38;12.45;;;11.15;;
15256;SDS011;7731;50.720;6.912;2023-03-02T09:59:17;11.98;;;10.77;;
15256;SDS011;7731;50.720;6.912;2023-03-02T10:01:55;11.10;;;9.93;;
15256;SDS011;7731;50.720;6.912;2023-03-02T10:04:40;13.25;;;10.45;;
15256;SDS011;7731;50.720;6.912;2023-03-02T10:07:18;11.98;;;9.95;;
15256;SDS011;7731;50.720;6.912;2023-03-02T10:09:57;12.10;;;10.45;;
15256;SDS011;7731;50.720;6.912;2023-03-02T10:12:39;11.15;;;9.85;;
15256;SDS011;7731;50.720;6.912;2023-03-02T10:15:30;11.00;;;9.90;;
15256;SDS011;7731;50.720;6.912;2023-03-02T10:18:12;11.98;;;10.23;;
15256;SDS011;7731;50.720;6.912;2023-03-02T10:20:52;12.80;;;10.63;;
15256;SDS011;7731;50.720;6.912;2023-03-02T10:23:47;13.40;;;11.27;;
15256;SDS011;7731;50.720;6.912;2023-03-02T10:26:26;14.73;;;11.05;;
15256;SDS011;7731;50.720;6.912;2023-03-02T10:29:14;12.18;;;10.88;;
15256;SDS011;7731;50.720;6.912;2023-03-02T10:32:06;13.23;;;10.88;;
15256;SDS011;7731;50.720;6.912;2023-03-02T10:34:50;12.20;;;10.90;;
15256;SDS011;7731;50.720;6.912;2023-03-02T10:37:23;13.95;;;10.23;;
15256;SDS011;7731;50.720;6.912;2023-03-02T10:40:01;15.57;;;11.00;;
15256;SDS011;7731;50.720;6.912;2023-03-02T10:42:32;14.60;;;10.90;;
15256;SDS011;7731;50.720;6.912;2023-03-02T10:45:10;13.07;;;10.10;;
15256;SDS011;7731;50.720;6.912;2023-03-02T10:47:59;11.63;;;10.52;;
15256;SDS011;7731;50.720;6.912;2023-03-02T10:50:31;11.73;;;10.52;;
15256;SDS011;7731;50.720;6.912;2023-03-02T10:53:04;12.30;;;11.00;;
15256;SDS011;7731;50.720;6.912;2023-03-02T10:55:42;12.30;;;11.00;;
15256;SDS011;7731;50.720;6.912;2023-03-02T10:58:19;14.05;;;11.23;;
15256;SDS011;7731;50.720;6.912;2023-03-02T11:00:54;13.90;;;11.15;;
15256;SDS011;7731;50.720;6.912;2023-03-02T11:03:27;11.35;;;9.95;;
15256;SDS011;7731;50.720;6.912;2023-03-02T11:06:09;11.82;;;10.50;;
15256;SDS011;7731;50.720;6.912;2023-03-02T11:08:56;13.00;;;9.90;;
15256;SDS011;7731;50.720;6.912;2023-03-02T11:11:30;14.10;;;10.55;;
15256;SDS011;7731;50.720;6.912;2023-03-02T11:14:07;13.70;;;10.85;;
15256;SDS011;7731;50.720;6.912;2023-03-02T11:16:43;12.57;;;10.55;;
15256;SDS011;7731;50.720;6.912;2023-03-02T11:19:14;12.82;;;10.90;;
15256;SDS011;7731;50.720;6.912;2023-03-02T11:21:54;12.23;;;10.82;;
15256;SDS011;7731;50.720;6.912;2023-03-02T11:24:34;15.20;;;11.68;;
15256;SDS011;7731;50.720;6.912;2023-03-02T11:27:18;13.93;;;11.13;;
15256;SDS011;7731;50.720;6.912;2023-03-02T11:29:55;12.43;;;10.82;;
15256;SDS011;7731;50.720;6.912;2023-03-02T11:32:33;14.63;;;9.93;;
15256;SDS011;7731;50.720;6.912;2023-03-02T11:35:11;11.93;;;10.45;;
15256;SDS011;7731;50.720;6.912;2023-03-02T11:37:50;12.65;;;9.95;;
15256;SDS011;7731;50.720;6.912;2023-03-02T11:40:25;11.73;;;10.43;;
15256;SDS011;7731;50.720;6.912;2023-03-02T11:43:07;13.85;;;10.75;;
15256;SDS011;7731;50.720;6.912;2023-03-02T11:45:41;11.90;;;10.63;;
15256;SDS011;7731;50.720;6.912;2023-03-02T11:48:16;13.30;;;11.05;;
15256;SDS011;7731;50.720;6.912;2023-03-02T11:50:55;12.63;;;10.60;;
15256;SDS011;7731;50.720;6.912;2023-03-02T11:53:32;14.27;;;10.25;;
15256;SDS011;7731;50.720;6.912;2023-03-02T11:56:14;13.85;;;10.85;;
15256;SDS011;7731;50.720;6.912;2023-03-02T11:58:47;13.18;;;10.80;;
15256;SDS011;7731;50.720;6.912;2023-03-02T12:01:26;11.77;;;10.55;;
15256;SDS011;7731;50.720;6.912;2023-03-02T12:04:05;13.27;;;10.50;;
15256;SDS011;7731;50.720;6.912;2023-03-02T12:06:38;13.38;;;10.43;;
15256;SDS011;7731;50.720;6.912;2023-03-02T12:09:25;14.50;;;9.88;;
15256;SDS011;7731;50.720;6.912;2023-03-02T12:21:19;14.00;;;9.02;;
15256;SDS011;7731;50.720;6.912;2023-03-02T12:23:53;13.50;;;8.98;;
15256;SDS011;7731;50.720;6.912;2023-03-02T12:26:30;12.48;;;7.95;;
15256;SDS011;7731;50.720;6.912;2023-03-02T12:29:21;13.77;;;8.32;;
15256;SDS011;7731;50.720;6.912;2023-03-02T12:32:08;13.55;;;9.15;;
15256;SDS011;7731;50.720;6.912;2023-03-02T12:34:53;11.20;;;8.50;;
15256;SDS011;7731;50.720;6.912;2023-03-02T12:37:32;11.60;;;8.45;;
15256;SDS011;7731;50.720;6.912;2023-03-02T12:40:23;10.25;;;8.07;;
15256;SDS011;7731;50.720;6.912;2023-03-02T12:43:17;12.93;;;8.77;;
15256;SDS011;7731;50.720;6.912;2023-03-02T12:49:02;12.68;;;8.85;;
15256;SDS011;7731;50.720;6.912;2023-03-02T12:51:50;11.25;;;7.93;;
15256;SDS011;7731;50.720;6.912;2023-03-02T12:54:25;13.25;;;8.15;;
15256;SDS011;7731;50.720;6.912;2023-03-02T12:57:01;13.65;;;8.57;;
15256;SDS011;7731;50.720;6.912;2023-03-02T12:59:41;12.38;;;8.73;;
15256;SDS011;7731;50.720;6.912;2023-03-02T13:02:19;18.50;;;9.50;;
15256;SDS011;7731;50.720;6.912;2023-03-02T13:04:56;27.08;;;10.52;;
15256;SDS011;7731;50.720;6.912;2023-03-02T13:07:32;18.50;;;9.25;;
15256;SDS011;7731;50.720;6.912;2023-03-02T13:10:25;14.38;;;8.95;;
15256;SDS011;7731;50.720;6.912;2023-03-02T13:13:13;11.25;;;8.30;;
15256;SDS011;7731;50.720;6.912;2023-03-02T13:15:46;13.48;;;9.10;;
15256;SDS011;7731;50.720;6.912;2023-03-02T13:18:19;15.70;;;9.25;;
15256;SDS011;7731;50.720;6.912;2023-03-02T13:21:00;15.63;;;9.73;;
15256;SDS011;7731;50.720;6.912;2023-03-02T13:23:32;14.63;;;9.65;;
15256;SDS011;7731;50.720;6.912;2023-03-02T13:26:03;12.13;;;9.48;;
15256;SDS011;7731;50.720;6.912;2023-03-02T13:28:35;29.85;;;20.42;;
15256;SDS011;7731;50.720;6.912;2023-03-02T13:31:16;42.58;;;24.27;;
15256;SDS011;7731;50.720;6.912;2023-03-02T13:33:50;17.08;;;10.30;;
15256;SDS011;7731;50.720;6.912;2023-03-02T13:36:28;16.13;;;9.88;;
15256;SDS011;7731;50.720;6.912;2023-03-02T13:39:05;11.85;;;9.32;;
15256;SDS011;7731;50.720;6.912;2023-03-02T13:41:54;12.38;;;9.23;;
15256;SDS011;7731;50.720;6.912;2023-03-02T13:44:27;13.32;;;9.20;;
15256;SDS011;7731;50.720;6.912;2023-03-02T13:47:00;10.00;;;8.02;;
15256;SDS011;7731;50.720;6.912;2023-03-02T13:49:33;12.13;;;9.68;;
15256;SDS011;7731;50.720;6.912;2023-03-02T13:52:16;12.00;;;8.50;;
15256;SDS011;7731;50.720;6.912;2023-03-02T13:54:55;10.60;;;8.27;;
15256;SDS011;7731;50.720;6.912;2023-03-02T13:57:28;12.23;;;9.02;;
15256;SDS011;7731;50.720;6.912;2023-03-02T14:00:01;10.05;;;8.60;;
15256;SDS011;7731;50.720;6.912;2023-03-02T14:02:42;10.55;;;8.65;;
15256;SDS011;7731;50.720;6.912;2023-03-02T14:05:15;12.75;;;8.82;;
15256;SDS011;7731;50.720;6.912;2023-03-02T14:07:52;15.02;;;9.45;;
15256;SDS011;7731;50.720;6.912;2023-03-02T14:10:22;11.85;;;8.88;;
15256;SDS011;7731;50.720;6.912;2023-03-02T14:12:56;11.27;;;9.15;;
15256;SDS011;7731;50.720;6.912;2023-03-02T14:15:34;11.45;;;9.00;;
15256;SDS011;7731;50.720;6.912;2023-03-02T14:21:08;11.88;;;9.02;;
15256;SDS011;7731;50.720;6.912;2023-03-02T14:23:45;13.55;;;9.45;;
15256;SDS011;7731;50.720;6.912;2023-03-02T14:26:19;10.77;;;9.05;;
15256;SDS011;7731;50.720;6.912;2023-03-02T14:29:04;12.90;;;9.15;;
15256;SDS011;7731;50.720;6.912;2023-03-02T14:31:47;12.65;;;9.32;;
15256;SDS011;7731;50.720;6.912;2023-03-02T14:34:19;11.32;;;9.10;;
15256;SDS011;7731;50.720;6.912;2023-03-02T14:36:51;16.42;;;9.65;;
15256;SDS011;7731;50.720;6.912;2023-03-02T14:39:29;11.52;;;8.50;;
15256;SDS011;7731;50.720;6.912;2023-03-02T14:42:05;11.73;;;8.52;;
15256;SDS011;7731;50.720;6.912;2023-03-02T14:44:43;15.07;;;9.80;;
15256;SDS011;7731;50.720;6.912;2023-03-02T14:47:18;12.77;;;9.95;;
15256;SDS011;7731;50.720;6.912;2023-03-02T14:49:49;16.15;;;9.48;;
15256;SDS011;7731;50.720;6.912;2023-03-02T14:52:22;16.55;;;9.77;;
15256;SDS011;7731;50.720;6.912;2023-03-02T14:55:11;13.18;;;8.90;;
15256;SDS011;7731;50.720;6.912;2023-03-02T14:57:52;10.85;;;9.30;;
15256;SDS011;7731;50.720;6.912;2023-03-02T15:00:26;13.10;;;8.98;;
15256;SDS011;7731;50.720;6.912;2023-03-02T15:02:57;12.80;;;8.55;;
15256;SDS011;7731;50.720;6.912;2023-03-02T15:05:30;10.65;;;7.93;;
15256;SDS011;7731;50.720;6.912;2023-03-02T15:08:00;11.55;;;7.72;;
15256;SDS011;7731;50.720;6.912;2023-03-02T15:10:33;14.00;;;7.53;;
15256;SDS011;7731;50.720;6.912;2023-03-02T15:13:05;12.30;;;7.82;;
15256;SDS011;7731;50.720;6.912;2023-03-02T15:15:40;14.45;;;7.18;;
15256;SDS011;7731;50.720;6.912;2023-03-02T15:18:12;13.07;;;8.45;;
15256;SDS011;7731;50.720;6.912;2023-03-02T15:20:45;13.07;;;7.95;;
15256;SDS011;7731;50.720;6.912;2023-03-02T15:23:15;13.13;;;7.97;;
15256;SDS011;7731;50.720;6.912;2023-03-02T15:25:48;10.00;;;6.75;;
15256;SDS011;7731;50.720;6.912;2023-03-02T15:28:18;10.80;;;7.90;;
15256;SDS011;7731;50.720;6.912;2023-03-02T15:30:48;12.20;;;7.75;;
15256;SDS011;7731;50.720;6.912;2023-03-02T15:33:19;11.73;;;7.80;;
15256;SDS011;7731;50.720;6.912;2023-03-02T15:35:51;10.40;;;7.45;;
15256;SDS011;7731;50.720;6.912;2023-03-02T15:38:22;9.10;;;7.22;;
15256;SDS011;7731;50.720;6.912;2023-03-02T15:40:57;8.30;;;7.13;;
15256;SDS011;7731;50.720;6.912;2023-03-02T15:43:32;9.75;;;7.38;;